Time;durP1;ratioP1;P1;durP2;ratioP2;P2;SDS_P1;SDS_P2;PMS_P1;PMS_P2;Temp;Humidity;BMP_temperature;BMP_pressure;BME280_temperature;BME280_humidity;BME280_pressure;Samples;Min_cycle;Max_cycle;Signal;HPM_P1;HPM_P2
2023/04/08 00:01:44;;;;;;;5.77;4.83;;;11.80;99.90;;;;;;5095366;28;20207;-60
2023/04/08 00:04:13;;;;;;;5.87;4.77;;;11.80;99.90;;;;;;5095400;28;20631;-56
2023/04/08 00:06:40;;;;;;;4.63;4.20;;;11.80;99.90;;;;;;5095551;28;20205;-55
2023/04/08 00:09:07;;;;;;;4.63;4.23;;;11.70;99.90;;;;;;5095466;28;20258;-55
2023/04/08 00:11:33;;;;;;;5.43;4.60;;;11.60;99.90;;;;;;5095388;28;20211;-55
2023/04/08 00:14:01;;;;;;;6.27;5.00;;;11.60;99.90;;;;;;5095484;28;20224;-55
2023/04/08 00:16:29;;;;;;;6.30;5.63;;;11.60;99.90;;;;;;5095463;28;20212;-56
2023/04/08 00:18:56;;;;;;;5.60;5.10;;;11.50;99.90;;;;;;5095110;28;20224;-56
2023/04/08 00:21:23;;;;;;;5.83;5.10;;;11.50;99.90;;;;;;5094687;28;20307;-59
2023/04/08 00:23:50;;;;;;;6.50;5.67;;;11.50;99.90;;;;;;5094042;28;20585;-56
2023/04/08 00:26:16;;;;;;;6.27;5.67;;;11.50;99.90;;;;;;5095112;28;20308;-55
2023/04/08 00:28:43;;;;;;;7.17;5.30;;;11.40;99.90;;;;;;5094710;28;20243;-56
2023/04/08 00:31:10;;;;;;;5.80;5.10;;;11.20;99.90;;;;;;5094401;28;20668;-56
2023/04/08 00:33:38;;;;;;;6.33;5.70;;;10.80;99.90;;;;;;5094645;28;20220;-56
2023/04/08 00:36:05;;;;;;;5.57;5.07;;;10.70;99.90;;;;;;5094452;28;20207;-56
2023/04/08 00:38:32;;;;;;;6.30;5.70;;;10.60;99.90;;;;;;5094362;28;20228;-56
2023/04/08 00:40:59;;;;;;;6.67;5.90;;;10.70;99.90;;;;;;5094566;28;20518;-56
2023/04/08 00:43:26;;;;;;;7.77;6.97;;;10.80;99.90;;;;;;5094278;28;20209;-56
2023/04/08 00:45:52;;;;;;;6.80;6.10;;;11.00;99.90;;;;;;5094278;28;20207;-56
2023/04/08 00:48:19;;;;;;;6.50;5.80;;;11.10;99.90;;;;;;5094159;28;20232;-56
2023/04/08 00:50:47;;;;;;;7.20;5.60;;;11.20;99.90;;;;;;5094259;28;20291;-56
2023/04/08 00:53:17;;;;;;;7.33;6.00;;;11.20;99.90;;;;;;5093799;28;20231;-56
2023/04/08 00:55:44;;;;;;;6.10;5.50;;;11.20;99.90;;;;;;5094070;28;20210;-56
2023/04/08 00:58:11;;;;;;;6.17;5.57;;;11.20;99.90;;;;;;5094101;28;20224;-57
2023/04/08 01:00:43;;;;;;;6.97;5.90;;;11.30;99.90;;;;;;5094423;28;20208;-57
2023/04/08 01:03:17;;;;;;;7.07;6.37;;;11.30;99.90;;;;;;5093856;28;20204;-56
2023/04/08 01:05:53;;;;;;;7.13;5.50;;;11.30;99.90;;;;;;5094121;28;20204;-56
2023/04/08 01:08:21;;;;;;;6.13;5.53;;;11.30;99.90;;;;;;5093784;28;20730;-56
2023/04/08 01:10:53;;;;;;;6.27;5.67;;;11.30;99.90;;;;;;5094116;28;20509;-57
2023/04/08 01:13:23;;;;;;;6.43;5.83;;;11.30;99.90;;;;;;5093620;28;20220;-56
2023/04/08 01:15:50;;;;;;;34.07;30.40;;;11.30;99.90;;;;;;5093865;28;20211;-56
2023/04/08 01:18:18;;;;;;;8.70;7.80;;;11.30;99.90;;;;;;5093572;28;20235;-56
2023/04/08 01:20:46;;;;;;;6.73;6.07;;;11.30;99.90;;;;;;5093720;28;20212;-56
2023/04/08 01:23:25;;;;;;;7.47;6.47;;;11.30;99.90;;;;;;5093838;28;20208;-57
2023/04/08 01:25:54;;;;;;;8.40;6.03;;;11.30;99.90;;;;;;5093931;28;20239;-56
2023/04/08 01:28:23;;;;;;;6.30;5.70;;;11.30;99.90;;;;;;5094422;28;20259;-55
2023/04/08 01:30:51;;;;;;;7.10;6.40;;;11.30;99.90;;;;;;5093793;28;20698;-56
2023/04/08 01:33:19;;;;;;;5.90;5.30;;;11.20;99.90;;;;;;5093479;28;20254;-56
2023/04/08 01:35:46;;;;;;;6.60;5.97;;;11.20;99.90;;;;;;5093579;28;20204;-56
2023/04/08 01:38:16;;;;;;;7.13;6.43;;;11.10;99.90;;;;;;5093282;28;20227;-56
2023/04/08 01:40:44;;;;;;;6.73;5.90;;;11.20;99.90;;;;;;5093265;28;20250;-56
2023/04/08 01:43:15;;;;;;;7.10;6.03;;;11.10;99.90;;;;;;5093189;28;20211;-56
2023/04/08 01:45:44;;;;;;;6.20;5.20;;;11.10;99.90;;;;;;5093475;28;20208;-56
2023/04/08 01:48:13;;;;;;;5.67;4.93;;;11.10;99.90;;;;;;5093342;28;20284;-56
2023/04/08 01:50:41;;;;;;;7.13;5.40;;;11.00;99.90;;;;;;5093173;28;20208;-56
2023/04/08 01:53:09;;;;;;;5.93;5.33;;;11.00;99.90;;;;;;5092698;28;20228;-56
2023/04/08 01:55:38;;;;;;;7.63;5.40;;;10.90;99.90;;;;;;5092811;28;20621;-56
2023/04/08 01:58:07;;;;;;;6.10;5.50;;;10.90;99.90;;;;;;5092912;28;20609;-56
2023/04/08 02:00:36;;;;;;;5.93;5.33;;;11.00;99.90;;;;;;5093053;28;20208;-56
2023/04/08 02:03:05;;;;;;;6.90;6.17;;;11.00;99.90;;;;;;5092559;28;20215;-56
2023/04/08 02:05:32;;;;;;;6.17;5.57;;;11.00;99.90;;;;;;5093069;28;20261;-57
2023/04/08 02:07:59;;;;;;;6.37;5.77;;;11.00;99.90;;;;;;5092984;28;20235;-56
2023/04/08 02:10:26;;;;;;;7.60;6.43;;;11.00;99.90;;;;;;5092795;28;20287;-56
2023/04/08 02:12:54;;;;;;;7.30;6.60;;;10.90;99.90;;;;;;5092777;28;20251;-56
2023/04/08 02:15:20;;;;;;;7.67;6.67;;;10.80;99.90;;;;;;5092657;28;20359;-56
2023/04/08 02:17:54;;;;;;;8.63;7.30;;;10.70;99.90;;;;;;5092755;28;20228;-56
2023/04/08 02:20:25;;;;;;;8.30;7.40;;;10.70;99.90;;;;;;5092692;28;20208;-56
2023/04/08 02:23:03;;;;;;;8.63;7.77;;;10.70;99.90;;;;;;5092590;28;20204;-56
2023/04/08 02:25:34;;;;;;;8.93;8.03;;;10.70;99.90;;;;;;5092840;28;20229;-56
2023/04/08 02:28:04;;;;;;;9.07;8.00;;;10.80;99.90;;;;;;5092613;28;20228;-56
2023/04/08 02:30:32;;;;;;;8.77;7.63;;;10.80;99.90;;;;;;5092719;28;20222;-56
2023/04/08 02:33:03;;;;;;;9.27;8.27;;;10.70;99.90;;;;;;5092039;28;20699;-56
2023/04/08 02:35:30;;;;;;;8.90;8.00;;;10.70;99.90;;;;;;5092469;28;20676;-56
2023/04/08 02:37:57;;;;;;;9.73;8.83;;;10.70;99.90;;;;;;5092990;28;20235;-56
2023/04/08 02:40:25;;;;;;;10.57;8.67;;;10.70;99.90;;;;;;5092986;28;20210;-55
2023/04/08 02:42:52;;;;;;;9.27;8.37;;;10.70;99.90;;;;;;5092588;28;20580;-55
2023/04/08 02:45:19;;;;;;;10.50;9.00;;;10.80;99.90;;;;;;5092599;28;20218;-56
2023/04/08 02:47:46;;;;;;;11.33;9.43;;;10.70;99.90;;;;;;5091800;28;20231;-56
2023/04/08 02:50:14;;;;;;;10.63;9.53;;;10.80;99.90;;;;;;5092189;28;20672;-55
2023/04/08 02:52:42;;;;;;;11.10;9.77;;;10.80;99.90;;;;;;5092049;28;20204;-56
2023/04/08 02:55:10;;;;;;;14.33;10.97;;;10.70;99.90;;;;;;5092598;28;20257;-56
2023/04/08 02:57:36;;;;;;;11.43;9.87;;;10.80;99.90;;;;;;5092382;28;20251;-56
2023/04/08 03:00:04;;;;;;;12.27;10.27;;;10.70;99.90;;;;;;5092233;28;20253;-56
2023/04/08 03:02:31;;;;;;;10.87;9.73;;;10.70;99.90;;;;;;5092189;28;20203;-56
2023/04/08 03:04:57;;;;;;;11.50;10.30;;;10.60;99.90;;;;;;5092051;28;20303;-56
2023/04/08 03:07:26;;;;;;;12.00;10.67;;;10.70;99.90;;;;;;5091737;28;20307;-56
2023/04/08 03:09:54;;;;;;;13.63;11.53;;;10.70;99.90;;;;;;5092088;28;20212;-56
2023/04/08 03:12:21;;;;;;;12.63;11.03;;;10.70;99.90;;;;;;5091594;28;20587;-56
2023/04/08 03:14:48;;;;;;;14.73;12.23;;;10.60;99.90;;;;;;5091857;28;20236;-56
2023/04/08 03:17:15;;;;;;;13.80;11.87;;;10.70;99.90;;;;;;5092048;28;20231;-56
2023/04/08 03:19:42;;;;;;;12.80;11.40;;;10.70;99.90;;;;;;5092082;28;20212;-56
2023/04/08 03:22:09;;;;;;;12.47;11.17;;;10.70;99.90;;;;;;5092022;28;20205;-56
2023/04/08 03:24:37;;;;;;;12.87;11.53;;;10.60;99.90;;;;;;5092062;28;20237;-56
2023/04/08 03:27:04;;;;;;;12.67;11.23;;;10.50;99.90;;;;;;5091656;28;20236;-57
2023/04/08 03:29:31;;;;;;;13.30;11.00;;;10.40;99.90;;;;;;5091805;28;20684;-56
2023/04/08 03:31:58;;;;;;;14.60;11.67;;;10.30;99.90;;;;;;5092003;28;20200;-55
2023/04/08 03:34:24;;;;;;;14.77;11.77;;;10.30;99.90;;;;;;5092083;28;20224;-56
2023/04/08 03:36:51;;;;;;;14.70;11.90;;;10.40;99.90;;;;;;5091847;28;20232;-57
2023/04/08 03:39:18;;;;;;;13.30;11.73;;;10.40;99.90;;;;;;5091812;28;20274;-55
2023/04/08 03:41:47;;;;;;;12.77;11.20;;;10.30;99.90;;;;;;5091425;28;20291;-56
2023/04/08 03:44:13;;;;;;;12.17;10.87;;;10.30;99.90;;;;;;5091563;28;20197;-56
2023/04/08 03:46:40;;;;;;;14.63;11.77;;;10.20;99.90;;;;;;5091590;28;20235;-56
2023/04/08 03:49:07;;;;;;;14.30;12.50;;;10.20;99.90;;;;;;5091747;28;20580;-55
2023/04/08 03:51:34;;;;;;;13.30;11.43;;;10.20;99.90;;;;;;5091613;28;20240;-55
2023/04/08 03:54:00;;;;;;;18.40;11.97;;;10.10;99.90;;;;;;5091469;28;20228;-56
2023/04/08 03:56:27;;;;;;;14.00;11.40;;;10.10;99.90;;;;;;5091837;28;20212;-55
2023/04/08 03:58:55;;;;;;;13.73;11.90;;;10.00;99.90;;;;;;5092806;28;20599;-55
2023/04/08 04:01:22;;;;;;;12.83;11.33;;;9.90;99.90;;;;;;5095222;28;20204;-56
2023/04/08 04:03:49;;;;;;;13.33;11.53;;;9.90;99.90;;;;;;5095107;28;20200;-57
2023/04/08 04:06:16;;;;;;;15.60;12.70;;;9.80;99.90;;;;;;5095144;28;20204;-56
2023/04/08 04:08:43;;;;;;;16.90;14.80;;;9.80;99.90;;;;;;5095177;28;20235;-56
2023/04/08 04:11:09;;;;;;;15.93;12.97;;;9.70;99.90;;;;;;5095280;28;20687;-56
2023/04/08 04:13:36;;;;;;;15.63;12.63;;;9.70;99.90;;;;;;5095529;28;20231;-56
2023/04/08 04:16:05;;;;;;;15.73;12.27;;;9.70;99.90;;;;;;5095460;28;20219;-56
2023/04/08 04:18:31;;;;;;;15.17;11.83;;;9.70;99.90;;;;;;5094968;28;20235;-56
2023/04/08 04:20:58;;;;;;;14.13;12.47;;;9.70;99.90;;;;;;5094984;28;20204;-56
2023/04/08 04:23:25;;;;;;;14.53;12.00;;;9.60;99.90;;;;;;5094759;28;20196;-56
2023/04/08 04:25:52;;;;;;;14.17;12.23;;;9.50;99.90;;;;;;5094716;28;20215;-56
2023/04/08 04:28:18;;;;;;;14.07;12.03;;;9.50;99.90;;;;;;5094421;28;20228;-56
2023/04/08 04:30:45;;;;;;;16.23;12.53;;;9.40;99.90;;;;;;5094668;28;20680;-55
2023/04/08 04:33:13;;;;;;;15.80;12.77;;;9.40;99.90;;;;;;5094237;28;20490;-55
2023/04/08 04:35:40;;;;;;;15.17;12.93;;;9.30;99.90;;;;;;5094601;28;20308;-56
2023/04/08 04:38:11;;;;;;;15.63;11.80;;;9.30;99.90;;;;;;5094392;28;20299;-56
2023/04/08 04:40:38;;;;;;;14.33;12.50;;;9.20;99.90;;;;;;5094652;28;20261;-56
2023/04/08 04:43:04;;;;;;;16.20;12.83;;;9.10;99.90;;;;;;5094408;28;20212;-56
2023/04/08 04:45:31;;;;;;;14.70;12.60;;;9.10;99.90;;;;;;5094600;28;20200;-56
2023/04/08 04:47:58;;;;;;;16.60;13.70;;;9.10;99.90;;;;;;5094223;28;20227;-56
2023/04/08 04:50:26;;;;;;;15.10;12.93;;;9.10;99.90;;;;;;5094846;28;20208;-56
2023/04/08 04:52:53;;;;;;;18.47;13.60;;;9.10;99.90;;;;;;5094159;28;20208;-56
2023/04/08 04:55:21;;;;;;;16.47;13.30;;;9.10;99.90;;;;;;5094362;28;20232;-56
2023/04/08 04:57:48;;;;;;;17.57;13.30;;;9.30;99.90;;;;;;5094245;28;20712;-56
2023/04/08 05:00:15;;;;;;;18.10;13.20;;;9.20;99.90;;;;;;5094771;28;20208;-56
2023/04/08 05:02:42;;;;;;;16.67;12.93;;;9.30;99.90;;;;;;5093944;28;20665;-56
2023/04/08 05:05:09;;;;;;;15.80;13.60;;;9.30;99.90;;;;;;5094415;28;20278;-56
2023/04/08 05:07:38;;;;;;;17.27;12.80;;;9.40;99.90;;;;;;5094690;28;20227;-56
2023/04/08 05:10:05;;;;;;;17.03;14.20;;;9.40;99.90;;;;;;5094455;28;20230;-55
2023/04/08 05:12:32;;;;;;;15.37;12.60;;;9.30;99.90;;;;;;5094339;28;20694;-57
2023/04/08 05:14:59;;;;;;;22.87;17.37;;;9.30;99.90;;;;;;5094497;28;20242;-56
2023/04/08 05:17:26;;;;;;;15.93;13.43;;;9.50;99.90;;;;;;5094263;28;20572;-55
2023/04/08 05:19:53;;;;;;;15.27;12.33;;;9.60;99.90;;;;;;5094061;28;20215;-56
2023/04/08 05:22:19;;;;;;;16.83;13.77;;;9.60;99.90;;;;;;5094202;28;20208;-56
2023/04/08 05:24:48;;;;;;;16.87;13.37;;;9.60;99.90;;;;;;5094024;28;20204;-56
2023/04/08 05:27:14;;;;;;;17.17;13.30;;;9.70;99.90;;;;;;5094908;28;20235;-55
2023/04/08 05:29:41;;;;;;;15.77;12.90;;;9.90;99.90;;;;;;5095519;28;20216;-55
2023/04/08 05:32:08;;;;;;;17.07;12.90;;;9.90;99.90;;;;;;5095053;28;20207;-55
2023/04/08 05:34:35;;;;;;;16.80;13.43;;;10.00;99.90;;;;;;5094399;28;20273;-56
2023/04/08 05:37:01;;;;;;;16.50;12.90;;;10.10;99.90;;;;;;5095420;28;20235;-57
2023/04/08 05:39:28;;;;;;;17.27;12.83;;;10.30;99.90;;;;;;5094222;28;20204;-56
2023/04/08 05:41:56;;;;;;;15.33;12.50;;;10.40;99.90;;;;;;5093987;28;20200;-57
2023/04/08 05:44:23;;;;;;;15.10;12.27;;;10.50;99.90;;;;;;5093925;28;20200;-57
2023/04/08 05:46:50;;;;;;;15.53;12.50;;;10.60;99.90;;;;;;5094065;28;20211;-56
2023/04/08 05:49:17;;;;;;;17.57;12.87;;;10.70;99.90;;;;;;5094080;28;20204;-56
2023/04/08 05:51:43;;;;;;;14.47;12.27;;;10.80;99.90;;;;;;5093519;28;20208;-56
2023/04/08 05:54:10;;;;;;;14.03;11.77;;;11.00;99.90;;;;;;5093544;28;20258;-56
2023/04/08 05:56:37;;;;;;;16.77;13.10;;;11.00;99.90;;;;;;5093317;28;20201;-56
2023/04/08 05:59:05;;;;;;;17.87;14.57;;;10.90;99.90;;;;;;5093417;28;20204;-57
2023/04/08 06:01:32;;;;;;;15.47;12.60;;;11.10;99.90;;;;;;5092895;28;20203;-55
2023/04/08 06:03:59;;;;;;;17.97;12.47;;;11.20;99.90;;;;;;5092933;28;20207;-55
2023/04/08 06:06:26;;;;;;;14.83;11.70;;;11.30;99.90;;;;;;5093817;28;20503;-56
2023/04/08 06:08:53;;;;;;;13.87;11.80;;;11.40;99.90;;;;;;5093208;28;20224;-55
2023/04/08 06:11:19;;;;;;;16.30;11.80;;;11.60;99.90;;;;;;5093195;28;20204;-56
2023/04/08 06:13:46;;;;;;;18.53;14.60;;;11.60;99.90;;;;;;5092974;28;20664;-57
2023/04/08 06:16:16;;;;;;;15.50;13.27;;;11.70;99.90;;;;;;5093400;28;20201;-56
2023/04/08 06:18:43;;;;;;;16.47;13.10;;;11.80;99.90;;;;;;5093705;28;20281;-56
2023/04/08 06:21:10;;;;;;;14.10;11.83;;;11.70;99.90;;;;;;5093225;28;20211;-56
2023/04/08 06:23:37;;;;;;;14.67;11.97;;;11.80;99.90;;;;;;5092800;28;20239;-56
2023/04/08 06:26:04;;;;;;;13.27;11.43;;;11.90;99.90;;;;;;5093080;28;20200;-56
2023/04/08 06:28:31;;;;;;;12.87;11.43;;;12.00;99.90;;;;;;5092761;28;20235;-56
2023/04/08 06:30:58;;;;;;;14.13;10.97;;;12.10;99.90;;;;;;5092886;28;20211;-55
2023/04/08 06:33:26;;;;;;;12.33;10.73;;;12.10;99.90;;;;;;5093087;28;20208;-56
2023/04/08 06:36:02;;;;;;;13.40;10.77;;;12.10;99.90;;;;;;5092755;28;20276;-56
2023/04/08 06:38:29;;;;;;;13.50;11.07;;;12.20;99.90;;;;;;5093146;28;20280;-56
2023/04/08 06:40:56;;;;;;;11.97;10.63;;;12.10;99.90;;;;;;5092618;28;20219;-55
2023/04/08 06:43:23;;;;;;;12.03;10.50;;;12.00;99.90;;;;;;5092442;28;20257;-56
2023/04/08 06:45:50;;;;;;;13.57;9.97;;;12.10;99.90;;;;;;5092693;28;20203;-56
2023/04/08 06:48:17;;;;;;;11.53;9.83;;;12.30;99.90;;;;;;5092621;28;20649;-56
2023/04/08 06:50:45;;;;;;;10.93;9.50;;;12.50;99.90;;;;;;5092474;28;20398;-56
2023/04/08 06:53:12;;;;;;;13.83;11.10;;;12.60;99.90;;;;;;5092412;28;20208;-56
2023/04/08 06:55:39;;;;;;;11.33;9.97;;;12.50;99.90;;;;;;5092494;28;20227;-56
2023/04/08 06:58:06;;;;;;;12.67;10.60;;;12.40;99.90;;;;;;5092543;28;20220;-56
2023/04/08 07:00:32;;;;;;;11.23;10.07;;;12.20;99.90;;;;;;5092716;28;20201;-56
2023/04/08 07:02:59;;;;;;;11.73;10.47;;;12.20;99.90;;;;;;5092105;28;20201;-57
2023/04/08 07:05:26;;;;;;;13.13;10.23;;;12.30;99.90;;;;;;5092372;28;20220;-57
2023/04/08 07:07:55;;;;;;;11.60;10.23;;;12.50;99.90;;;;;;5092789;28;20259;-57
2023/04/08 07:10:22;;;;;;;12.03;10.57;;;12.60;99.90;;;;;;5092621;28;20598;-57
2023/04/08 07:12:48;;;;;;;11.73;10.23;;;12.70;99.90;;;;;;5092982;28;20200;-56
2023/04/08 07:15:15;;;;;;;11.83;10.53;;;12.90;99.90;;;;;;5092629;28;20246;-56
2023/04/08 07:17:42;;;;;;;11.07;9.73;;;13.10;99.90;;;;;;5092400;28;20230;-55
2023/04/08 07:20:11;;;;;;;11.73;10.53;;;13.30;99.90;;;;;;5092363;28;20295;-56
2023/04/08 07:22:37;;;;;;;34.00;23.93;;;13.40;99.90;;;;;;5092271;28;20277;-55
2023/04/08 07:25:06;;;;;;;11.80;9.83;;;13.30;99.90;;;;;;5092594;28;20258;-56
2023/04/08 07:27:34;;;;;;;11.10;9.43;;;13.20;99.90;;;;;;5092849;28;20257;-57
2023/04/08 07:30:01;;;;;;;11.47;9.97;;;12.80;99.90;;;;;;5092190;28;20262;-57
2023/04/08 07:32:28;;;;;;;14.13;11.90;;;12.60;99.90;;;;;;5091939;28;20712;-56
2023/04/08 07:34:54;;;;;;;11.97;10.53;;;12.50;99.90;;;;;;5096248;28;20246;-56
2023/04/08 07:37:21;;;;;;;11.50;9.97;;;12.70;99.90;;;;;;5095764;28;20231;-57
2023/04/08 07:39:48;;;;;;;12.70;10.57;;;12.90;99.90;;;;;;5095942;28;20243;-56
2023/04/08 07:42:17;;;;;;;11.73;10.53;;;13.20;99.90;;;;;;5096043;28;20255;-57
2023/04/08 07:44:44;;;;;;;12.73;10.77;;;13.30;99.90;;;;;;5095800;28;20249;-57
2023/04/08 07:47:11;;;;;;;12.80;11.40;;;13.30;99.90;;;;;;5095544;28;20228;-56
2023/04/08 07:49:39;;;;;;;13.73;11.17;;;13.10;99.90;;;;;;5095379;28;20212;-57
2023/04/08 07:52:05;;;;;;;13.03;10.80;;;13.00;99.90;;;;;;5095071;28;20200;-57
2023/04/08 07:54:33;;;;;;;11.00;9.90;;;13.00;99.90;;;;;;5095331;28;20691;-57
2023/04/08 07:57:00;;;;;;;12.37;10.50;;;12.90;99.90;;;;;;5095591;28;20249;-56
2023/04/08 07:59:29;;;;;;;11.63;10.43;;;12.80;99.90;;;;;;5095375;28;20200;-56
2023/04/08 08:01:56;;;;;;;11.73;10.50;;;12.90;99.90;;;;;;5094951;28;20220;-57
2023/04/08 08:04:24;;;;;;;11.67;10.43;;;13.10;99.90;;;;;;5095114;28;20208;-57
2023/04/08 08:06:51;;;;;;;11.00;9.83;;;13.50;99.90;;;;;;5095875;28;20208;-56
2023/04/08 08:09:18;;;;;;;11.80;10.60;;;14.10;99.90;;;;;;5095664;28;20222;-57
2023/04/08 08:11:45;;;;;;;12.30;9.97;;;14.60;99.90;;;;;;5095410;28;20204;-57
2023/04/08 08:14:12;;;;;;;14.00;12.50;;;15.20;99.90;;;;;;5095435;28;20702;-57
2023/04/08 08:16:41;;;;;;;10.57;9.30;;;15.60;99.90;;;;;;5095149;28;20711;-57
2023/04/08 08:19:08;;;;;;;11.47;9.63;;;15.90;99.90;;;;;;5095356;28;20289;-56
2023/04/08 08:21:37;;;;;;;10.63;9.52;;;16.20;99.90;;;;;;5095630;28;20457;-56
2023/04/08 08:24:04;;;;;;;10.73;9.63;;;16.60;99.90;;;;;;5094662;28;20253;-56
2023/04/08 08:26:31;;;;;;;10.57;9.20;;;16.90;99.90;;;;;;5095527;28;20565;-56
2023/04/08 08:28:57;;;;;;;10.90;9.52;;;17.00;99.90;;;;;;5095561;28;20268;-56
2023/04/08 08:31:24;;;;;;;10.15;9.15;;;16.90;99.90;;;;;;5095086;28;20208;-57
2023/04/08 08:33:52;;;;;;;9.55;8.55;;;16.80;99.90;;;;;;5095158;28;20686;-56
2023/04/08 08:36:19;;;;;;;11.13;9.13;;;16.40;99.90;;;;;;5094935;28;20231;-56
2023/04/08 08:38:46;;;;;;;9.57;8.60;;;16.40;99.90;;;;;;5095586;28;20233;-57
2023/04/08 08:41:14;;;;;;;10.65;9.48;;;16.50;99.90;;;;;;5095518;28;20670;-56
2023/04/08 08:43:41;;;;;;;9.75;8.75;;;16.40;99.90;;;;;;5095297;28;20204;-57
2023/04/08 08:46:10;;;;;;;9.27;8.43;;;16.40;99.90;;;;;;5094501;28;20224;-58
2023/04/08 08:48:39;;;;;;;10.35;8.52;;;16.50;99.90;;;;;;5095113;28;20224;-57
2023/04/08 08:51:10;;;;;;;11.00;8.25;;;16.90;99.90;;;;;;5095252;28;20204;-55
2023/04/08 08:53:37;;;;;;;8.93;7.97;;;17.10;99.90;;;;;;5095074;28;20722;-56
2023/04/08 08:56:05;;;;;;;9.68;8.68;;;17.20;99.90;;;;;;5094687;28;20593;-56
2023/04/08 08:58:32;;;;;;;9.13;8.23;;;17.30;99.90;;;;;;5095126;28;20562;-57
2023/04/08 09:00:59;;;;;;;9.20;8.13;;;17.10;99.90;;;;;;5094541;28;20211;-57
2023/04/08 09:03:27;;;;;;;9.82;8.00;;;17.10;99.90;;;;;;5094603;28;20226;-57
2023/04/08 09:05:55;;;;;;;9.07;8.02;;;17.30;99.90;;;;;;5094713;28;20299;-56
2023/04/08 09:08:31;;;;;;;10.23;9.23;;;17.60;99.90;;;;;;5094303;28;20626;-57
2023/04/08 09:11:12;;;;;;;9.38;7.97;;;17.80;99.90;;;;;;5094239;28;20208;-57
2023/04/08 09:13:39;;;;;;;9.00;8.10;;;18.10;99.90;;;;;;5094331;28;20672;-56
2023/04/08 09:16:09;;;;;;;8.95;7.88;;;18.40;99.90;;;;;;5094142;28;20223;-57
2023/04/08 09:18:36;;;;;;;8.50;7.70;;;18.70;99.90;;;;;;5094513;28;20310;-56
2023/04/08 09:21:04;;;;;;;8.27;7.53;;;18.70;99.80;;;;;;5094088;28;20566;-57
2023/04/08 09:23:43;;;;;;;9.68;8.00;;;18.50;99.80;;;;;;5094103;28;20204;-56
2023/04/08 09:26:11;;;;;;;7.88;7.15;;;18.40;99.60;;;;;;5094233;28;20196;-56
2023/04/08 09:28:39;;;;;;;9.15;7.90;;;18.00;99.80;;;;;;5093806;28;20235;-56
2023/04/08 09:31:23;;;;;;;9.40;7.85;;;17.80;99.90;;;;;;5094234;28;20200;-55
2023/04/08 09:33:52;;;;;;;8.60;7.65;;;18.00;99.50;;;;;;5094053;28;20570;-56
2023/04/08 09:36:19;;;;;;;7.97;7.18;;;18.10;99.00;;;;;;5093951;28;20224;-57
2023/04/08 09:38:47;;;;;;;8.68;7.72;;;18.10;99.60;;;;;;5093828;28;20228;-57
2023/04/08 09:41:16;;;;;;;8.63;7.72;;;18.20;98.30;;;;;;5093723;28;20700;-54
2023/04/08 09:43:48;;;;;;;10.38;7.82;;;18.10;98.60;;;;;;5093619;28;20219;-57
2023/04/08 09:46:16;;;;;;;9.05;7.82;;;17.90;97.70;;;;;;5093717;28;20200;-55
2023/04/08 09:48:49;;;;;;;9.07;8.18;;;17.80;97.60;;;;;;5094100;28;20236;-55
2023/04/08 09:51:18;;;;;;;8.93;8.02;;;17.90;97.80;;;;;;5094051;28;20332;-57
2023/04/08 09:53:49;;;;;;;10.30;8.20;;;18.10;97.20;;;;;;5093788;28;20588;-56
2023/04/08 09:56:19;;;;;;;8.38;7.57;;;18.10;96.10;;;;;;5092511;28;20730;-58
2023/04/08 09:58:54;;;;;;;8.93;7.97;;;17.70;96.30;;;;;;5093420;28;20613;-57
2023/04/08 10:01:26;;;;;;;8.85;7.95;;;17.00;96.50;;;;;;5093843;28;20295;-57
2023/04/08 10:03:56;;;;;;;10.52;7.45;;;16.50;97.40;;;;;;5093336;28;20199;-57
2023/04/08 10:06:28;;;;;;;9.23;7.45;;;16.10;98.10;;;;;;5093480;28;20200;-57
2023/04/08 10:08:57;;;;;;;7.70;6.90;;;16.10;97.00;;;;;;5093331;28;20228;-57
2023/04/08 10:11:24;;;;;;;8.13;7.00;;;16.10;97.40;;;;;;5093276;28;20664;-57
2023/04/08 10:13:51;;;;;;;9.50;8.00;;;16.30;96.90;;;;;;5093223;28;20743;-57
2023/04/08 10:16:20;;;;;;;9.02;7.05;;;16.50;95.70;;;;;;5093327;28;20357;-58
2023/04/08 10:18:48;;;;;;;8.43;7.50;;;16.50;96.30;;;;;;5093431;28;20228;-57
2023/04/08 10:21:35;;;;;;;8.18;7.20;;;16.60;95.40;;;;;;5092564;28;20571;-58
2023/04/08 10:24:07;;;;;;;7.55;6.72;;;16.40;95.40;;;;;;5092449;28;20660;-57
2023/04/08 10:26:39;;;;;;;8.35;7.18;;;16.60;94.10;;;;;;5092710;28;20290;-56
2023/04/08 10:29:42;;;;;;;7.03;6.32;;;16.70;92.90;;;;;;5093046;28;20204;-56
2023/04/08 10:32:27;;;;;;;17.08;8.73;;;16.30;92.50;;;;;;5092526;28;20222;-58
2023/04/08 10:34:54;;;;;;;7.85;6.72;;;16.20;92.70;;;;;;5092935;28;20204;-58
2023/04/08 10:37:21;;;;;;;7.65;6.35;;;16.30;92.40;;;;;;5092430;28;20252;-57
2023/04/08 10:39:54;;;;;;;7.40;6.28;;;16.30;92.80;;;;;;5092749;28;20205;-58
2023/04/08 10:42:27;;;;;;;6.70;5.97;;;16.30;92.40;;;;;;5092492;28;20204;-58
2023/04/08 10:44:54;;;;;;;6.57;5.90;;;16.10;91.30;;;;;;5093081;28;20212;-57
2023/04/08 10:47:26;;;;;;;7.45;5.88;;;15.90;90.80;;;;;;5092300;28;20582;-58
2023/04/08 10:49:53;;;;;;;7.32;5.95;;;15.70;90.40;;;;;;5092786;28;20208;-56
2023/04/08 10:52:22;;;;;;;6.95;6.10;;;15.50;90.00;;;;;;5092819;28;20300;-56
2023/04/08 10:54:49;;;;;;;7.03;5.80;;;15.30;90.70;;;;;;5093231;28;20472;-57
2023/04/08 10:57:24;;;;;;;9.13;5.63;;;15.20;90.70;;;;;;5093149;28;20754;-57
2023/04/08 10:59:51;;;;;;;7.40;5.90;;;15.10;90.50;;;;;;5093505;28;20215;-57
2023/04/08 11:02:17;;;;;;;8.20;6.10;;;15.00;90.80;;;;;;5092801;28;20679;-58
2023/04/08 11:04:46;;;;;;;8.50;6.07;;;14.80;90.90;;;;;;5093042;28;20214;-57
2023/04/08 11:07:14;;;;;;;7.20;5.57;;;14.60;90.80;;;;;;5093321;28;20232;-57
2023/04/08 11:09:41;;;;;;;6.93;5.80;;;14.30;91.20;;;;;;5097138;28;20287;-57
2023/04/08 11:12:08;;;;;;;6.40;5.80;;;14.00;91.40;;;;;;5097151;28;20302;-57
2023/04/08 11:14:38;;;;;;;7.83;6.07;;;13.70;92.00;;;;;;5097177;28;20204;-57
2023/04/08 11:17:04;;;;;;;7.20;5.83;;;13.50;92.70;;;;;;5096647;28;20792;-57
2023/04/08 11:19:31;;;;;;;6.60;5.33;;;13.50;93.30;;;;;;5097240;28;20593;-57
2023/04/08 11:21:58;;;;;;;6.13;5.53;;;13.50;93.20;;;;;;5097454;28;20209;-57
2023/04/08 11:24:26;;;;;;;6.73;5.70;;;13.40;93.10;;;;;;5097453;28;20668;-57
2023/04/08 11:26:53;;;;;;;6.07;5.40;;;13.50;93.30;;;;;;5096895;28;20267;-57
2023/04/08 11:29:21;;;;;;;8.63;5.77;;;13.40;92.60;;;;;;5096991;28;20269;-56
2023/04/08 11:31:50;;;;;;;6.13;5.53;;;13.50;92.50;;;;;;5096940;28;20261;-57
2023/04/08 11:34:22;;;;;;;7.33;5.90;;;13.50;92.70;;;;;;5096731;28;20208;-57
2023/04/08 11:36:49;;;;;;;9.03;5.93;;;13.40;92.80;;;;;;5096998;28;20220;-57
2023/04/08 11:39:16;;;;;;;7.43;5.77;;;13.20;93.10;;;;;;5096384;28;20211;-57
2023/04/08 11:41:43;;;;;;;8.83;6.67;;;13.20;93.70;;;;;;5096649;28;20217;-58
2023/04/08 11:44:10;;;;;;;8.27;6.60;;;13.20;93.80;;;;;;5096500;28;20204;-57
2023/04/08 11:46:39;;;;;;;7.53;6.37;;;13.30;93.90;;;;;;5096597;28;20196;-57
2023/04/08 11:49:08;;;;;;;6.90;6.00;;;13.30;94.00;;;;;;5096400;28;20200;-57
2023/04/08 11:51:53;;;;;;;7.10;6.20;;;13.20;94.30;;;;;;5096154;28;20201;-56
2023/04/08 11:54:27;;;;;;;7.57;6.10;;;13.20;94.70;;;;;;5096452;28;20204;-57
2023/04/08 11:56:54;;;;;;;6.80;5.90;;;13.30;94.80;;;;;;5097784;28;20318;-57
2023/04/08 11:59:21;;;;;;;7.17;6.07;;;13.40;95.00;;;;;;5096944;28;20664;-56
2023/04/08 12:01:48;;;;;;;7.60;6.47;;;13.30;95.20;;;;;;5095888;28;20214;-56
2023/04/08 12:04:16;;;;;;;6.73;5.90;;;13.30;95.40;;;;;;5096010;28;20200;-57
2023/04/08 12:06:45;;;;;;;7.13;6.10;;;13.20;95.50;;;;;;5095177;28;20227;-56
2023/04/08 12:09:12;;;;;;;7.10;6.20;;;13.20;95.70;;;;;;5096487;28;20212;-55
2023/04/08 12:11:39;;;;;;;7.60;6.43;;;13.50;95.60;;;;;;5096442;28;20295;-57
2023/04/08 12:14:06;;;;;;;23.27;17.30;;;13.60;95.40;;;;;;5096789;28;20205;-56
2023/04/08 12:16:33;;;;;;;6.40;5.80;;;13.80;95.40;;;;;;5096348;28;20326;-57
2023/04/08 12:19:00;;;;;;;8.57;6.20;;;14.00;95.00;;;;;;5096444;28;20207;-56
2023/04/08 12:21:28;;;;;;;8.70;6.47;;;13.90;95.00;;;;;;5095844;28;20548;-55
2023/04/08 12:23:55;;;;;;;8.17;6.07;;;13.80;95.20;;;;;;5096077;28;20211;-56
2023/04/08 12:26:22;;;;;;;10.23;6.27;;;13.90;95.30;;;;;;5096221;28;20304;-57
2023/04/08 12:28:49;;;;;;;7.50;6.53;;;14.10;95.40;;;;;;5095861;28;20243;-56
2023/04/08 12:31:15;;;;;;;8.27;6.17;;;14.40;95.00;;;;;;5096145;28;20247;-57
2023/04/08 12:33:42;;;;;;;7.20;6.40;;;14.80;94.80;;;;;;5095638;28;20210;-57
2023/04/08 12:36:10;;;;;;;8.53;6.30;;;15.10;94.80;;;;;;5095461;28;20223;-58
2023/04/08 12:38:38;;;;;;;8.97;6.30;;;15.10;94.70;;;;;;5095847;28;20574;-57
2023/04/08 12:41:06;;;;;;;9.93;6.90;;;15.20;94.70;;;;;;5096920;28;20679;-57
2023/04/08 12:43:33;;;;;;;7.43;6.63;;;15.20;94.40;;;;;;5096653;28;20212;-57